createdAt,value
2019-01-29T00:00:21.642Z,0
2019-01-29T00:01:21.382Z,0
2019-01-29T00:02:21.360Z,0
2019-01-29T00:03:21.351Z,0
2019-01-29T00:04:21.334Z,0
2019-01-29T00:05:21.076Z,0
2019-01-29T00:06:21.307Z,0
2019-01-29T00:07:21.287Z,0
2019-01-29T00:08:21.274Z,0
2019-01-29T00:09:21.259Z,0
2019-01-29T00:10:21.245Z,0
2019-01-29T00:11:21.228Z,0
2019-01-29T00:12:21.225Z,0
2019-01-29T00:13:21.208Z,0
2019-01-29T00:14:21.195Z,0
2019-01-29T00:15:21.187Z,0
2019-01-29T00:16:21.225Z,0
2019-01-29T00:17:21.150Z,0
2019-01-29T00:18:21.131Z,0
2019-01-29T00:19:21.131Z,0
2019-01-29T00:20:21.105Z,0
2019-01-29T00:21:21.092Z,0
2019-01-29T00:22:21.087Z,0
2019-01-29T00:23:21.060Z,0
2019-01-29T00:24:21.045Z,0
2019-01-29T00:25:21.030Z,0
2019-01-29T00:26:21.022Z,0
2019-01-29T00:27:21.013Z,0
2019-01-29T00:28:20.994Z,0
2019-01-29T00:29:20.973Z,0
2019-01-29T00:30:20.963Z,0
2019-01-29T00:31:20.951Z,0
2019-01-29T00:32:20.933Z,0
2019-01-29T00:33:20.929Z,0
2019-01-29T00:34:20.908Z,0
2019-01-29T00:35:20.892Z,0
2019-01-29T00:36:20.875Z,0
2019-01-29T00:37:20.926Z,0
2019-01-29T00:38:20.854Z,0
2019-01-29T00:39:20.845Z,0
2019-01-29T00:40:20.825Z,0
2019-01-29T00:41:20.809Z,0
2019-01-29T00:42:20.791Z,0
2019-01-29T00:43:20.771Z,0
2019-01-29T00:44:20.525Z,0
2019-01-29T00:45:20.747Z,0
2019-01-29T00:46:20.733Z,0
2019-01-29T00:47:20.747Z,0
2019-01-29T00:48:20.706Z,0
2019-01-29T00:49:22.632Z,0
2019-01-29T00:50:20.681Z,0
2019-01-29T00:51:20.667Z,0
2019-01-29T00:52:20.411Z,0
2019-01-29T00:53:20.640Z,0
2019-01-29T00:54:20.623Z,0
2019-01-29T00:55:20.608Z,0
2019-01-29T00:56:20.592Z,0
2019-01-29T00:57:20.583Z,0
2019-01-29T00:58:20.582Z,0
2019-01-29T00:59:20.548Z,0
2019-01-29T01:00:20.541Z,0
2019-01-29T01:01:20.529Z,0
2019-01-29T01:02:20.511Z,0
2019-01-29T01:03:20.492Z,0
2019-01-29T01:04:20.476Z,0
2019-01-29T01:05:20.475Z,0
2019-01-29T01:06:20.454Z,0
2019-01-29T01:07:20.438Z,0
2019-01-29T01:08:20.496Z,0
2019-01-29T01:09:20.407Z,0
2019-01-29T01:10:20.395Z,0
2019-01-29T01:11:20.378Z,0
2019-01-29T01:12:20.362Z,0
2019-01-29T01:13:20.353Z,0
2019-01-29T01:14:20.356Z,0
2019-01-29T01:15:20.378Z,0
2019-01-29T01:16:20.304Z,0
2019-01-29T01:17:20.302Z,0
2019-01-29T01:18:20.296Z,0
2019-01-29T01:19:20.272Z,0
2019-01-29T01:20:20.250Z,0
2019-01-29T01:21:20.239Z,0
2019-01-29T01:22:20.223Z,0
2019-01-29T01:23:20.204Z,0
2019-01-29T01:24:20.190Z,0
2019-01-29T01:25:20.176Z,0
2019-01-29T01:26:20.165Z,0
2019-01-29T01:27:20.147Z,0
2019-01-29T01:28:20.131Z,0
2019-01-29T01:29:20.120Z,0
2019-01-29T01:30:19.867Z,0
2019-01-29T01:31:20.156Z,0
2019-01-29T01:32:20.074Z,0
2019-01-29T01:33:20.060Z,0
2019-01-29T01:34:20.044Z,0
2019-01-29T01:35:20.036Z,0
2019-01-29T01:36:20.015Z,0
2019-01-29T01:37:20.003Z,0
2019-01-29T01:38:19.987Z,0
2019-01-29T01:39:19.969Z,0
2019-01-29T01:40:19.957Z,0
2019-01-29T01:41:19.946Z,0
2019-01-29T01:42:19.930Z,0
2019-01-29T01:43:19.914Z,0
2019-01-29T01:44:19.895Z,0
2019-01-29T01:45:19.884Z,0
2019-01-29T01:46:19.942Z,0
2019-01-29T01:47:19.857Z,0
2019-01-29T01:48:19.841Z,0
2019-01-29T01:49:19.824Z,0
2019-01-29T01:50:19.809Z,0
2019-01-29T01:51:19.554Z,0
2019-01-29T01:52:19.797Z,0
2019-01-29T01:53:19.768Z,0
2019-01-29T01:54:19.767Z,0
2019-01-29T01:55:19.746Z,0
2019-01-29T01:56:19.720Z,0
2019-01-29T01:57:19.710Z,0
2019-01-29T01:58:19.706Z,0
2019-01-29T01:59:19.677Z,0
2019-01-29T02:00:19.663Z,0
2019-01-29T02:01:19.645Z,0
2019-01-29T02:02:19.648Z,0
2019-01-29T02:03:19.616Z,0
2019-01-29T02:04:19.605Z,0
2019-01-29T02:05:19.585Z,0
2019-01-29T02:06:19.328Z,0
2019-01-29T02:07:19.563Z,0
2019-01-29T02:08:19.542Z,0
2019-01-29T02:09:19.531Z,0
2019-01-29T02:10:19.522Z,0
2019-01-29T02:11:19.500Z,0
2019-01-29T02:12:19.489Z,0
2019-01-29T02:13:19.535Z,0
2019-01-29T02:14:19.457Z,0
2019-01-29T02:15:19.437Z,0
2019-01-29T02:16:19.430Z,0
2019-01-29T02:17:19.411Z,0
2019-01-29T02:18:19.395Z,0
2019-01-29T02:19:19.383Z,0
2019-01-29T02:20:19.372Z,0
2019-01-29T02:21:19.348Z,0
2019-01-29T02:22:19.331Z,0
2019-01-29T02:23:19.322Z,0
2019-01-29T02:24:19.306Z,0
2019-01-29T02:25:19.291Z,0
2019-01-29T02:26:19.273Z,0
2019-01-29T02:27:19.261Z,0
2019-01-29T02:28:19.241Z,0
2019-01-29T02:29:19.231Z,0
2019-01-29T02:30:19.223Z,0
2019-01-29T02:31:19.214Z,0
2019-01-29T02:32:19.195Z,0
2019-01-29T02:33:19.167Z,0
2019-01-29T02:34:19.154Z,0
2019-01-29T02:35:19.142Z,0
2019-01-29T02:36:19.127Z,0
2019-01-29T02:37:19.121Z,0
2019-01-29T02:38:19.090Z,0
2019-01-29T02:39:19.082Z,0
2019-01-29T02:40:19.069Z,0
2019-01-29T02:41:19.050Z,0
2019-01-29T02:42:19.044Z,0
2019-01-29T02:43:19.041Z,0
2019-01-29T02:44:19.010Z,0
2019-01-29T02:45:18.992Z,0
2019-01-29T02:46:18.986Z,0
2019-01-29T02:47:18.959Z,0
2019-01-29T02:48:18.948Z,0
2019-01-29T02:49:18.982Z,0
2019-01-29T02:50:18.926Z,0
2019-01-29T02:51:20.369Z,0
2019-01-29T02:52:18.647Z,0
2019-01-29T02:53:25.474Z,0
2019-01-29T02:54:18.851Z,0
2019-01-29T02:55:18.876Z,0
2019-01-29T02:56:18.822Z,0
2019-01-29T02:57:18.815Z,0
2019-01-29T02:58:18.798Z,0
2019-01-29T02:59:18.780Z,0
2019-01-29T03:00:18.761Z,0
2019-01-29T03:01:18.750Z,0
2019-01-29T03:02:18.738Z,0
2019-01-29T03:03:18.723Z,0
2019-01-29T03:04:18.701Z,0
2019-01-29T03:05:18.519Z,0
2019-01-29T03:06:18.675Z,0
2019-01-29T03:07:18.657Z,0
2019-01-29T03:08:18.637Z,0
2019-01-29T03:09:18.629Z,0
2019-01-29T03:10:18.624Z,0
2019-01-29T03:11:18.597Z,0
2019-01-29T03:12:18.581Z,0
2019-01-29T03:13:18.620Z,0
2019-01-29T03:14:18.549Z,0
2019-01-29T03:15:18.533Z,0
2019-01-29T03:16:18.516Z,0
2019-01-29T03:17:18.506Z,0
2019-01-29T03:18:18.483Z,0
2019-01-29T03:19:18.470Z,0
2019-01-29T03:20:18.455Z,0
2019-01-29T03:21:18.454Z,0
2019-01-29T03:22:18.420Z,0
2019-01-29T03:23:26.991Z,0
2019-01-29T03:24:18.393Z,0
2019-01-29T03:25:18.406Z,0
2019-01-29T03:26:18.375Z,0
2019-01-29T03:27:18.360Z,0
2019-01-29T03:28:18.339Z,0
2019-01-29T03:29:18.327Z,0
2019-01-29T03:30:18.385Z,0
2019-01-29T03:31:18.313Z,0
2019-01-29T03:32:18.300Z,0
2019-01-29T03:33:18.340Z,0
2019-01-29T03:34:18.265Z,0
2019-01-29T03:35:18.251Z,0
2019-01-29T03:36:18.216Z,0
2019-01-29T03:37:18.193Z,0
2019-01-29T03:38:18.180Z,0
2019-01-29T03:39:18.163Z,0
2019-01-29T03:40:18.147Z,0
2019-01-29T03:41:18.137Z,0
2019-01-29T03:42:18.157Z,0
2019-01-29T03:43:18.174Z,0
2019-01-29T03:44:18.086Z,0
2019-01-29T03:45:18.104Z,0
2019-01-29T03:46:18.056Z,0
2019-01-29T03:47:18.042Z,0
2019-01-29T03:48:18.029Z,0
2019-01-29T03:49:18.014Z,0
2019-01-29T03:50:18.003Z,0
2019-01-29T03:51:17.980Z,0
2019-01-29T03:52:17.976Z,0
2019-01-29T03:53:17.947Z,0
2019-01-29T03:54:17.929Z,0
2019-01-29T03:55:17.929Z,0
2019-01-29T03:56:17.903Z,0
2019-01-29T03:57:17.887Z,0
2019-01-29T03:58:17.869Z,0
2019-01-29T03:59:17.863Z,0
2019-01-29T04:00:17.852Z,0
2019-01-29T04:01:17.826Z,0
2019-01-29T04:02:17.802Z,0
2019-01-29T04:03:17.787Z,0
2019-01-29T04:04:17.786Z,0
2019-01-29T04:05:17.774Z,0
2019-01-29T04:06:17.741Z,0
2019-01-29T04:07:17.733Z,0
2019-01-29T04:08:17.755Z,0
2019-01-29T04:09:17.696Z,0
2019-01-29T04:10:20.373Z,0
2019-01-29T04:11:17.668Z,0
2019-01-29T04:12:17.672Z,0
2019-01-29T04:13:17.627Z,0
2019-01-29T04:14:17.617Z,0
2019-01-29T04:15:17.604Z,0
2019-01-29T04:16:17.588Z,0
2019-01-29T04:17:19.107Z,0
2019-01-29T04:18:17.555Z,0
2019-01-29T04:19:17.546Z,0
2019-01-29T04:20:17.526Z,0
2019-01-29T04:21:17.510Z,0
2019-01-29T04:22:17.490Z,0
2019-01-29T04:23:17.477Z,0
2019-01-29T04:24:17.458Z,0
2019-01-29T04:25:17.532Z,0
2019-01-29T04:26:17.430Z,0
2019-01-29T04:27:17.462Z,0
2019-01-29T04:28:17.409Z,0
2019-01-29T04:29:17.382Z,0
2019-01-29T04:30:17.379Z,0
2019-01-29T04:31:17.344Z,0
2019-01-29T04:32:17.352Z,0
2019-01-29T04:33:17.318Z,0
2019-01-29T04:34:17.310Z,0
2019-01-29T04:35:17.285Z,0
2019-01-29T04:36:17.263Z,0
2019-01-29T04:37:17.251Z,0
2019-01-29T04:38:17.235Z,0
2019-01-29T04:39:17.224Z,0
2019-01-29T04:40:17.255Z,0
2019-01-29T04:41:17.193Z,0
2019-01-29T04:42:17.190Z,0
2019-01-29T04:43:18.005Z,0
2019-01-29T04:44:17.172Z,0
2019-01-29T04:45:17.126Z,0
2019-01-29T04:46:17.106Z,0
2019-01-29T04:47:16.849Z,0
2019-01-29T04:48:17.095Z,0
2019-01-29T04:49:17.057Z,0
2019-01-29T04:50:17.051Z,0
2019-01-29T04:51:17.023Z,0
2019-01-29T04:52:17.104Z,0
2019-01-29T04:53:16.999Z,0
2019-01-29T04:54:16.983Z,0
2019-01-29T04:55:16.970Z,0
2019-01-29T04:56:16.954Z,0
2019-01-29T04:57:17.010Z,0
2019-01-29T04:58:16.915Z,0
2019-01-29T04:59:16.913Z,0
2019-01-29T05:00:16.889Z,0
2019-01-29T05:01:18.430Z,0
2019-01-29T05:02:16.851Z,20
2019-01-29T05:03:16.834Z,28
2019-01-29T05:04:16.819Z,32
2019-01-29T05:05:16.867Z,36
2019-01-29T05:06:16.790Z,36
2019-01-29T05:07:16.779Z,40
2019-01-29T05:08:16.831Z,36
2019-01-29T05:09:16.748Z,36
2019-01-29T05:10:16.728Z,36
2019-01-29T05:11:16.717Z,36
2019-01-29T05:12:16.991Z,36
2019-01-29T05:13:16.802Z,36
2019-01-29T05:14:16.666Z,40
2019-01-29T05:15:16.661Z,40
2019-01-29T05:16:16.635Z,40
2019-01-29T05:17:16.879Z,40
2019-01-29T05:18:16.605Z,0
2019-01-29T05:19:16.580Z,0
2019-01-29T05:20:16.569Z,0
2019-01-29T05:21:16.553Z,0
2019-01-29T05:22:16.534Z,0
2019-01-29T05:23:16.521Z,0
2019-01-29T05:24:16.506Z,0
2019-01-29T05:25:16.492Z,0
2019-01-29T05:26:16.472Z,0
2019-01-29T05:27:16.452Z,0
2019-01-29T05:28:16.446Z,0
2019-01-29T05:29:16.417Z,0
2019-01-29T05:30:16.409Z,0
2019-01-29T05:31:16.401Z,0
2019-01-29T05:32:16.368Z,0
2019-01-29T05:33:16.365Z,0
2019-01-29T05:34:16.355Z,0
2019-01-29T05:35:16.343Z,0
2019-01-29T05:36:16.315Z,0
2019-01-29T05:37:16.304Z,0
2019-01-29T05:38:16.283Z,0
2019-01-29T05:39:16.266Z,0
2019-01-29T05:40:16.248Z,0
2019-01-29T05:41:16.238Z,0
2019-01-29T05:42:16.269Z,0
2019-01-29T05:43:16.194Z,0
2019-01-29T05:44:16.185Z,0
2019-01-29T05:45:16.160Z,0
2019-01-29T05:46:16.224Z,0
2019-01-29T05:47:16.138Z,0
2019-01-29T05:48:16.151Z,0
2019-01-29T05:49:16.096Z,0
2019-01-29T05:50:16.077Z,0
2019-01-29T05:51:16.080Z,0
2019-01-29T05:52:16.049Z,0
2019-01-29T05:53:16.031Z,0
2019-01-29T05:54:23.326Z,0
2019-01-29T05:55:16.014Z,0
2019-01-29T05:56:15.988Z,0
2019-01-29T05:57:15.973Z,0
2019-01-29T05:58:15.954Z,0
2019-01-29T05:59:15.951Z,0
2019-01-29T06:00:15.922Z,0
2019-01-29T06:01:15.901Z,0
2019-01-29T06:02:15.937Z,0
2019-01-29T06:03:15.870Z,0
2019-01-29T06:04:15.856Z,0
2019-01-29T06:05:15.840Z,0
2019-01-29T06:06:15.822Z,0
2019-01-29T06:07:15.803Z,0
2019-01-29T06:08:15.800Z,0
2019-01-29T06:09:15.776Z,0
2019-01-29T06:10:15.776Z,0
2019-01-29T06:11:15.755Z,0
2019-01-29T06:12:15.722Z,0
2019-01-29T06:13:16.899Z,0
2019-01-29T06:14:15.694Z,0
2019-01-29T06:15:15.672Z,4
2019-01-29T06:16:15.660Z,4
2019-01-29T06:17:15.647Z,0
2019-01-29T06:18:15.631Z,4
2019-01-29T06:19:15.367Z,4
2019-01-29T06:20:15.596Z,4
2019-01-29T06:21:15.582Z,8
2019-01-29T06:22:15.582Z,8
2019-01-29T06:23:15.570Z,8
2019-01-29T06:24:15.542Z,8
2019-01-29T06:25:15.559Z,8
2019-01-29T06:26:15.496Z,8
2019-01-29T06:27:15.480Z,12
2019-01-29T06:28:15.461Z,16
2019-01-29T06:29:15.449Z,16
2019-01-29T06:30:15.427Z,20
2019-01-29T06:31:15.416Z,24
2019-01-29T06:32:15.395Z,28
2019-01-29T06:33:15.377Z,32
2019-01-29T06:34:15.362Z,36
2019-01-29T06:35:15.342Z,48
2019-01-29T06:36:15.331Z,48
2019-01-29T06:37:15.319Z,60
2019-01-29T06:38:15.295Z,68
2019-01-29T06:39:15.278Z,80
2019-01-29T06:40:15.263Z,84
2019-01-29T06:41:15.238Z,100
2019-01-29T06:42:15.226Z,108
2019-01-29T06:43:15.207Z,120
2019-01-29T06:44:15.188Z,136
2019-01-29T06:45:15.173Z,148
2019-01-29T06:46:15.156Z,164
2019-01-29T06:47:15.137Z,176
2019-01-29T06:48:15.124Z,200
2019-01-29T06:49:15.113Z,212
2019-01-29T06:50:15.088Z,232
2019-01-29T06:51:15.074Z,256
2019-01-29T06:52:15.058Z,276
2019-01-29T06:53:15.119Z,304
2019-01-29T06:54:15.023Z,328
2019-01-29T06:55:15.000Z,356
2019-01-29T06:56:14.996Z,384
2019-01-29T06:57:14.969Z,420
2019-01-29T06:58:14.950Z,452
2019-01-29T06:59:14.931Z,492
2019-01-29T07:00:14.915Z,528
2019-01-29T07:01:14.904Z,572
2019-01-29T07:02:15.455Z,612
2019-01-29T07:03:14.889Z,672
2019-01-29T07:04:14.847Z,724
2019-01-29T07:05:14.837Z,772
2019-01-29T07:06:14.816Z,816
2019-01-29T07:07:14.796Z,856
2019-01-29T07:08:14.783Z,904
2019-01-29T07:09:14.762Z,952
2019-01-29T07:10:14.746Z,1000
2019-01-29T07:11:14.724Z,1040
2019-01-29T07:12:14.723Z,1084
2019-01-29T07:13:14.698Z,1128
2019-01-29T07:14:14.674Z,1116
2019-01-29T07:15:14.659Z,1140
2019-01-29T07:16:15.126Z,1184
2019-01-29T07:17:14.624Z,1232
2019-01-29T07:18:14.616Z,1272
2019-01-29T07:19:14.590Z,1328
2019-01-29T07:20:14.572Z,1316
2019-01-29T07:21:14.558Z,1308
2019-01-29T07:22:14.544Z,1336
2019-01-29T07:23:14.521Z,1392
2019-01-29T07:24:14.266Z,1368
2019-01-29T07:25:14.491Z,1248
2019-01-29T07:26:14.468Z,1208
2019-01-29T07:27:14.457Z,1276
2019-01-29T07:28:15.852Z,1392
2019-01-29T07:29:14.422Z,1552
2019-01-29T07:30:14.404Z,1640
2019-01-29T07:31:14.397Z,1356
2019-01-29T07:32:14.366Z,1196
2019-01-29T07:33:14.352Z,1412
2019-01-29T07:34:14.348Z,1568
2019-01-29T07:35:14.322Z,1768
2019-01-29T07:36:14.304Z,2020
2019-01-29T07:37:21.752Z,2068
2019-01-29T07:38:14.298Z,2248
2019-01-29T07:39:14.315Z,2440
2019-01-29T07:40:14.474Z,2440
2019-01-29T07:41:14.225Z,2296
2019-01-29T07:42:14.204Z,2304
2019-01-29T07:43:14.185Z,2348
2019-01-29T07:44:14.172Z,2540
2019-01-29T07:45:14.151Z,2664
2019-01-29T07:46:14.134Z,3004
2019-01-29T07:47:14.119Z,3316
2019-01-29T07:48:14.104Z,3644
2019-01-29T07:49:14.096Z,3736
2019-01-29T07:50:14.076Z,3792
2019-01-29T07:51:14.054Z,3932
2019-01-29T07:52:15.331Z,3888
2019-01-29T07:53:14.066Z,3820
2019-01-29T07:54:14.007Z,3792
2019-01-29T07:55:13.987Z,3824
2019-01-29T07:56:13.974Z,4252
2019-01-29T07:57:13.956Z,4468
2019-01-29T07:58:13.943Z,3592
2019-01-29T07:59:13.957Z,3136
2019-01-29T08:00:13.917Z,3228
2019-01-29T08:01:13.896Z,3348
2019-01-29T08:02:13.942Z,3316
2019-01-29T08:03:13.864Z,3200
2019-01-29T08:04:13.844Z,3120
2019-01-29T08:05:13.832Z,3104
2019-01-29T08:06:13.825Z,3008
2019-01-29T08:07:13.795Z,2940
2019-01-29T08:08:13.783Z,3000
2019-01-29T08:09:13.765Z,3292
2019-01-29T08:10:13.751Z,3804
2019-01-29T08:11:13.738Z,4080
2019-01-29T08:12:13.718Z,3844
2019-01-29T08:13:13.777Z,3904
2019-01-29T08:14:13.445Z,3996
2019-01-29T08:15:13.670Z,3732
2019-01-29T08:16:15.385Z,3592
2019-01-29T08:17:13.640Z,3628
2019-01-29T08:18:13.623Z,3468
2019-01-29T08:19:13.608Z,3720
2019-01-29T08:20:13.599Z,4476
2019-01-29T08:21:13.580Z,4656
2019-01-29T08:22:13.570Z,4896
2019-01-29T08:23:13.547Z,5196
2019-01-29T08:24:13.293Z,5412
2019-01-29T08:25:13.519Z,4816
2019-01-29T08:26:13.500Z,4356
2019-01-29T08:27:13.490Z,4292
2019-01-29T08:28:13.466Z,4176
2019-01-29T08:29:13.457Z,3796
2019-01-29T08:30:13.456Z,3556
2019-01-29T08:31:13.420Z,3656
2019-01-29T08:32:13.407Z,4356
2019-01-29T08:33:13.391Z,5592
2019-01-29T08:34:13.379Z,5316
2019-01-29T08:35:13.358Z,5776
2019-01-29T08:36:13.404Z,5364
2019-01-29T08:37:13.327Z,4836
2019-01-29T08:38:13.310Z,5352
2019-01-29T08:39:13.302Z,4912
2019-01-29T08:40:13.281Z,4772
2019-01-29T08:41:13.274Z,5408
2019-01-29T08:42:13.259Z,6060
2019-01-29T08:43:13.244Z,6408
2019-01-29T08:44:13.221Z,6460
2019-01-29T08:45:13.203Z,7532
2019-01-29T08:46:13.189Z,7100
2019-01-29T08:47:13.185Z,6576
2019-01-29T08:48:13.157Z,5828
2019-01-29T08:49:13.146Z,6232
2019-01-29T08:50:13.128Z,7548
2019-01-29T08:51:13.118Z,8332
2019-01-29T08:52:14.112Z,8500
2019-01-29T08:53:13.084Z,8432
2019-01-29T08:54:13.078Z,5828
2019-01-29T08:55:17.943Z,6328
2019-01-29T08:56:12.811Z,5980
2019-01-29T08:57:13.799Z,4436
2019-01-29T08:58:13.951Z,4596
2019-01-29T08:59:13.007Z,5960
2019-01-29T09:00:12.981Z,6176
2019-01-29T09:01:13.602Z,5416
2019-01-29T09:02:13.067Z,6016
2019-01-29T09:03:12.941Z,5648
2019-01-29T09:04:12.927Z,5508
2019-01-29T09:05:12.917Z,5752
2019-01-29T09:06:12.900Z,5468
2019-01-29T09:07:12.893Z,5288
2019-01-29T09:08:13.179Z,5064
2019-01-29T09:09:12.860Z,4284
2019-01-29T09:10:12.842Z,4556
2019-01-29T09:11:12.837Z,4416
2019-01-29T09:12:12.814Z,4132
2019-01-29T09:13:12.560Z,3684
2019-01-29T09:14:12.786Z,3540
2019-01-29T09:15:12.782Z,3372
2019-01-29T09:16:12.768Z,3460
2019-01-29T09:17:12.502Z,3920
2019-01-29T09:18:12.735Z,4572
2019-01-29T09:19:12.722Z,4504
2019-01-29T09:20:12.704Z,4400
2019-01-29T09:21:12.691Z,4500
2019-01-29T09:22:12.678Z,5700
2019-01-29T09:23:12.666Z,6516
2019-01-29T09:24:12.651Z,7504
2019-01-29T09:25:22.741Z,9624
2019-01-29T09:26:12.689Z,10072
2019-01-29T09:27:12.620Z,9256
2019-01-29T09:28:18.360Z,8416
2019-01-29T09:29:20.177Z,9684
2019-01-29T09:30:12.571Z,8044
2019-01-29T09:31:12.564Z,7508
2019-01-29T09:32:12.547Z,7744
2019-01-29T09:33:12.529Z,6912
2019-01-29T09:34:12.516Z,6100
2019-01-29T09:35:12.510Z,5476
2019-01-29T09:36:12.489Z,4900
2019-01-29T09:37:12.480Z,5576
2019-01-29T09:38:12.473Z,4072
2019-01-29T09:39:12.481Z,4408
2019-01-29T09:40:12.440Z,4596
2019-01-29T09:41:12.437Z,4420
2019-01-29T09:42:12.423Z,4088
2019-01-29T09:43:12.405Z,4104
2019-01-29T09:44:12.392Z,3620
2019-01-29T09:45:12.377Z,3876
2019-01-29T09:46:12.361Z,4592
2019-01-29T09:47:12.356Z,4264
2019-01-29T09:48:12.341Z,4172
2019-01-29T09:49:13.683Z,3792
2019-01-29T09:50:12.311Z,3756
2019-01-29T09:51:12.318Z,3804
2019-01-29T09:52:12.327Z,3916
2019-01-29T09:53:12.273Z,4140
2019-01-29T09:54:12.259Z,4628
2019-01-29T09:55:13.534Z,4780
2019-01-29T09:56:12.243Z,5288
2019-01-29T09:57:12.230Z,8228
2019-01-29T09:58:12.213Z,8120
2019-01-29T09:59:12.208Z,6192
2019-01-29T10:00:12.186Z,5248
2019-01-29T10:01:12.174Z,5712
2019-01-29T10:02:12.158Z,5108
2019-01-29T10:03:12.151Z,4468
2019-01-29T10:04:12.135Z,5636
2019-01-29T10:05:12.121Z,6064
2019-01-29T10:06:12.114Z,5248
2019-01-29T10:07:12.096Z,5068
2019-01-29T10:08:12.076Z,7384
2019-01-29T10:09:11.835Z,7632
2019-01-29T10:10:12.055Z,7216
2019-01-29T10:11:12.042Z,7140
2019-01-29T10:12:12.023Z,7236
2019-01-29T10:13:12.014Z,9252
2019-01-29T10:14:11.998Z,9836
2019-01-29T10:15:11.988Z,10128
2019-01-29T10:16:11.975Z,9252
2019-01-29T10:17:11.985Z,10300
2019-01-29T10:18:11.725Z,14040
2019-01-29T10:19:11.939Z,12372
2019-01-29T10:20:11.929Z,11052
2019-01-29T10:21:11.914Z,9440
2019-01-29T10:22:11.897Z,6324
2019-01-29T10:23:11.888Z,6188
2019-01-29T10:24:11.874Z,6740
2019-01-29T10:25:11.860Z,5552
2019-01-29T10:26:11.855Z,6344
2019-01-29T10:27:11.837Z,5652
2019-01-29T10:28:11.852Z,6028
2019-01-29T10:29:11.819Z,6376
2019-01-29T10:30:11.807Z,7540
2019-01-29T10:31:11.790Z,7260
2019-01-29T10:32:11.779Z,6588
2019-01-29T10:33:11.770Z,5968
2019-01-29T10:34:11.758Z,5468
2019-01-29T10:35:11.751Z,5140
2019-01-29T10:36:11.728Z,5288
2019-01-29T10:37:11.741Z,4788
2019-01-29T10:38:11.701Z,5028
2019-01-29T10:39:11.693Z,5040
2019-01-29T10:40:11.678Z,5132
2019-01-29T10:41:11.669Z,5092
2019-01-29T10:42:13.094Z,5676
2019-01-29T10:43:11.645Z,6088
2019-01-29T10:44:11.635Z,5656
2019-01-29T10:45:11.621Z,4700
2019-01-29T10:46:11.617Z,4532
2019-01-29T10:47:13.743Z,5144
2019-01-29T10:48:11.588Z,4976
2019-01-29T10:49:11.574Z,4812
2019-01-29T10:50:11.572Z,5564
2019-01-29T10:51:11.558Z,5748
2019-01-29T10:52:11.548Z,5452
2019-01-29T10:53:11.570Z,4792
2019-01-29T10:54:11.516Z,4708
2019-01-29T10:55:11.506Z,4872
2019-01-29T10:56:11.485Z,5040
2019-01-29T10:57:12.606Z,4864
2019-01-29T10:58:11.468Z,4932
2019-01-29T10:59:11.457Z,4664
2019-01-29T11:00:12.181Z,4616
2019-01-29T11:01:11.427Z,4412
2019-01-29T11:02:11.416Z,4276
2019-01-29T11:03:11.411Z,4488
2019-01-29T11:04:11.555Z,5772
2019-01-29T11:05:11.381Z,5780
2019-01-29T11:06:11.366Z,6284
2019-01-29T11:07:11.349Z,6492
2019-01-29T11:08:11.353Z,6432
2019-01-29T11:09:11.361Z,6564
2019-01-29T11:10:11.572Z,6772
2019-01-29T11:11:11.302Z,7048
2019-01-29T11:12:11.292Z,7708
2019-01-29T11:13:12.178Z,8852
2019-01-29T11:14:11.261Z,8176
2019-01-29T11:15:11.264Z,6976
2019-01-29T11:16:11.245Z,6312
2019-01-29T11:17:11.231Z,6400
2019-01-29T11:18:11.219Z,7724
2019-01-29T11:19:11.209Z,10268
2019-01-29T11:20:11.190Z,9860
2019-01-29T11:21:11.179Z,8448
2019-01-29T11:22:11.170Z,7656
2019-01-29T11:23:11.156Z,8940
2019-01-29T11:24:11.144Z,10068
2019-01-29T11:25:11.129Z,9152
2019-01-29T11:26:11.118Z,8336
2019-01-29T11:27:11.101Z,6708
2019-01-29T11:28:11.096Z,5892
2019-01-29T11:29:11.081Z,5956
2019-01-29T11:30:11.089Z,5868
2019-01-29T11:31:11.086Z,6284
2019-01-29T11:32:11.051Z,7960
2019-01-29T11:33:11.116Z,8284
2019-01-29T11:34:11.023Z,6696
2019-01-29T11:35:11.010Z,5272
2019-01-29T11:36:11.000Z,3992
2019-01-29T11:37:12.132Z,3984
2019-01-29T11:38:10.978Z,3888
2019-01-29T11:39:10.968Z,4152
2019-01-29T11:40:10.954Z,4644
2019-01-29T11:41:10.939Z,4476
2019-01-29T11:42:10.930Z,4240
2019-01-29T11:43:10.920Z,3712
2019-01-29T11:44:10.665Z,3516
2019-01-29T11:45:10.897Z,3632
2019-01-29T11:46:10.881Z,3344
2019-01-29T11:47:11.386Z,3068
2019-01-29T11:48:10.857Z,3376
2019-01-29T11:49:10.875Z,3852
2019-01-29T11:50:10.834Z,4740
2019-01-29T11:51:10.826Z,4720
2019-01-29T11:52:11.207Z,4604
2019-01-29T11:53:10.799Z,4088
2019-01-29T11:54:10.788Z,4176
2019-01-29T11:55:10.781Z,4216
2019-01-29T11:56:11.989Z,4696
2019-01-29T11:57:10.749Z,5016
2019-01-29T11:58:10.737Z,3856
2019-01-29T11:59:10.739Z,3140
2019-01-29T12:00:10.727Z,2840
2019-01-29T12:01:11.810Z,2968
2019-01-29T12:02:10.718Z,3188
2019-01-29T12:03:10.683Z,3172
2019-01-29T12:04:10.663Z,3332
2019-01-29T12:05:10.655Z,4172
2019-01-29T12:06:10.395Z,3392
2019-01-29T12:07:10.629Z,3004
2019-01-29T12:08:10.616Z,2872
2019-01-29T12:09:10.602Z,2888
2019-01-29T12:10:10.591Z,2760
2019-01-29T12:11:10.593Z,3080
2019-01-29T12:12:10.568Z,3264
2019-01-29T12:13:10.553Z,2948
2019-01-29T12:14:10.547Z,2852
2019-01-29T12:15:10.533Z,2968
2019-01-29T12:16:10.515Z,3424
2019-01-29T12:17:10.503Z,3328
2019-01-29T12:18:10.499Z,3240
2019-01-29T12:19:10.482Z,3016
2019-01-29T12:20:10.239Z,3272
2019-01-29T12:21:10.461Z,3440
2019-01-29T12:22:10.441Z,2840
2019-01-29T12:23:10.430Z,2944
2019-01-29T12:24:11.295Z,3044
2019-01-29T12:25:10.417Z,2912
2019-01-29T12:26:18.000Z,3080
2019-01-29T12:27:10.380Z,3300
2019-01-29T12:28:10.366Z,3496
2019-01-29T12:29:10.364Z,3624
2019-01-29T12:30:10.343Z,4140
2019-01-29T12:31:10.439Z,4812
2019-01-29T12:32:10.320Z,5832
2019-01-29T12:33:10.347Z,5316
2019-01-29T12:34:10.302Z,4956
2019-01-29T12:35:10.281Z,5984
2019-01-29T12:36:10.273Z,5944
2019-01-29T12:37:10.276Z,5020
2019-01-29T12:38:10.252Z,4876
2019-01-29T12:39:10.257Z,4308
2019-01-29T12:40:10.227Z,3544
2019-01-29T12:41:10.207Z,3832
2019-01-29T12:42:10.203Z,3816
2019-01-29T12:43:10.182Z,4304
2019-01-29T12:44:10.169Z,4144
2019-01-29T12:45:10.212Z,3636
2019-01-29T12:46:10.146Z,3772
2019-01-29T12:47:10.133Z,4124
2019-01-29T12:48:10.152Z,3864
2019-01-29T12:49:10.106Z,3372
2019-01-29T12:50:10.097Z,3392
2019-01-29T12:51:10.083Z,3156
2019-01-29T12:52:10.136Z,3572
2019-01-29T12:53:10.810Z,4120
2019-01-29T12:54:10.046Z,5028
2019-01-29T12:55:10.041Z,5008
2019-01-29T12:56:10.020Z,4412
2019-01-29T12:57:10.012Z,4092
2019-01-29T12:58:10.000Z,4000
2019-01-29T12:59:09.989Z,3980
2019-01-29T13:00:09.973Z,4220
2019-01-29T13:01:09.964Z,3972
2019-01-29T13:02:09.949Z,4056
2019-01-29T13:03:09.933Z,4032
2019-01-29T13:04:09.924Z,4024
2019-01-29T13:05:09.913Z,4032
2019-01-29T13:06:09.897Z,3776
2019-01-29T13:07:09.890Z,3600
2019-01-29T13:08:09.881Z,3852
2019-01-29T13:09:09.864Z,5108
2019-01-29T13:10:09.909Z,6004
2019-01-29T13:11:09.839Z,6228
2019-01-29T13:12:09.826Z,6524
2019-01-29T13:13:09.811Z,6064
2019-01-29T13:14:09.798Z,5500
2019-01-29T13:15:09.800Z,5720
2019-01-29T13:16:09.775Z,5660
2019-01-29T13:17:09.762Z,5604
2019-01-29T13:18:09.772Z,5780
2019-01-29T13:19:09.811Z,5700
2019-01-29T13:20:09.784Z,5684
2019-01-29T13:21:09.712Z,5676
2019-01-29T13:22:09.702Z,5396
2019-01-29T13:23:09.694Z,4960
2019-01-29T13:24:09.678Z,4884
2019-01-29T13:25:09.693Z,4540
2019-01-29T13:26:09.650Z,4700
2019-01-29T13:27:09.648Z,5964
2019-01-29T13:28:09.636Z,6804
2019-01-29T13:29:09.616Z,6136
2019-01-29T13:30:09.616Z,5880
2019-01-29T13:31:09.588Z,5712
2019-01-29T13:32:09.582Z,5700
2019-01-29T13:33:09.633Z,5648
2019-01-29T13:34:09.560Z,5908
2019-01-29T13:35:09.541Z,6240
2019-01-29T13:36:09.530Z,6028
2019-01-29T13:37:09.524Z,5508
2019-01-29T13:38:09.510Z,4856
2019-01-29T13:39:09.491Z,4604
2019-01-29T13:40:09.687Z,4904
2019-01-29T13:41:09.470Z,5008
2019-01-29T13:42:09.459Z,4628
2019-01-29T13:43:09.457Z,4072
2019-01-29T13:44:09.431Z,3644
2019-01-29T13:45:09.422Z,3368
2019-01-29T13:46:09.408Z,3204
2019-01-29T13:47:09.394Z,3168
2019-01-29T13:48:09.384Z,3196
2019-01-29T13:49:09.376Z,3292
2019-01-29T13:50:09.363Z,3320
2019-01-29T13:51:09.350Z,3280
2019-01-29T13:52:09.337Z,3212
2019-01-29T13:53:09.324Z,3136
2019-01-29T13:54:09.319Z,3128
2019-01-29T13:55:09.297Z,3200
2019-01-29T13:56:09.286Z,3276
2019-01-29T13:57:09.274Z,3356
2019-01-29T13:58:09.265Z,3432